createdAt,value
2023-05-01T00:00:00.698Z,1014.54
2023-05-01T00:01:00.720Z,1014.58
2023-05-01T00:02:00.698Z,1014.50
2023-05-01T00:03:00.824Z,1014.53
2023-05-01T00:04:00.888Z,1014.47
2023-05-01T00:05:00.800Z,1014.44
2023-05-01T00:06:00.643Z,1014.50
2023-05-01T00:07:00.645Z,1014.47
2023-05-01T00:08:00.620Z,1014.46
2023-05-01T00:09:00.603Z,1014.47
2023-05-01T00:10:00.593Z,1014.42
2023-05-01T00:11:00.583Z,1014.48
2023-05-01T00:12:00.613Z,1014.41
2023-05-01T00:13:00.547Z,1014.45
2023-05-01T00:14:00.563Z,1014.41
2023-05-01T00:15:00.561Z,1014.41
2023-05-01T00:16:00.534Z,1014.43
2023-05-01T00:17:00.526Z,1014.41
2023-05-01T00:18:00.517Z,1014.39
2023-05-01T00:19:00.509Z,1014.43
2023-05-01T00:20:00.485Z,1014.37
2023-05-01T00:21:00.458Z,1014.35
2023-05-01T00:22:00.497Z,1014.32
2023-05-01T00:23:00.454Z,1014.35
2023-05-01T00:24:00.472Z,1014.37
2023-05-01T00:25:00.428Z,1014.38
2023-05-01T00:26:00.412Z,1014.36
2023-05-01T00:27:00.441Z,1014.35
2023-05-01T00:28:00.395Z,1014.36
2023-05-01T00:29:00.384Z,1014.35
2023-05-01T00:30:00.367Z,1014.33
2023-05-01T00:31:00.367Z,1014.34
2023-05-01T00:32:00.425Z,1014.37
2023-05-01T00:33:00.364Z,1014.39
2023-05-01T00:34:00.332Z,1014.44
2023-05-01T00:35:00.328Z,1014.41
2023-05-01T00:36:00.315Z,1014.39
2023-05-01T00:37:00.342Z,1014.39
2023-05-01T00:38:00.277Z,1014.33
2023-05-01T00:39:00.265Z,1014.38
2023-05-01T00:40:00.287Z,1014.38
2023-05-01T00:41:00.237Z,1014.32
2023-05-01T00:42:00.248Z,1014.35
2023-05-01T00:43:00.235Z,1014.31
2023-05-01T00:44:00.196Z,1014.38
2023-05-01T00:45:00.210Z,1014.38
2023-05-01T00:46:00.334Z,1014.35
2023-05-01T00:47:00.234Z,1014.38
2023-05-01T00:48:00.269Z,1014.34
2023-05-01T00:49:00.179Z,1014.36
2023-05-01T00:50:00.188Z,1014.38
2023-05-01T00:51:00.170Z,1014.36
2023-05-01T00:52:00.186Z,1014.33
2023-05-01T00:53:00.158Z,1014.31
2023-05-01T00:54:00.170Z,1014.29
2023-05-01T00:55:00.127Z,1014.33
2023-05-01T00:56:00.088Z,1014.29
2023-05-01T00:57:00.093Z,1014.27
2023-05-01T00:58:00.074Z,1014.24
2023-05-01T00:59:00.065Z,1014.27
2023-05-01T01:00:00.067Z,1014.27
2023-05-01T01:01:00.054Z,1014.23
2023-05-01T01:02:00.058Z,1014.25
2023-05-01T01:03:00.053Z,1014.26
2023-05-01T01:04:00.048Z,1014.22
2023-05-01T01:05:00.034Z,1014.26
2023-05-01T01:05:59.982Z,1014.23
2023-05-01T01:07:00.005Z,1014.21
2023-05-01T01:07:59.939Z,1014.25
2023-05-01T01:08:59.924Z,1014.23
2023-05-01T01:09:59.925Z,1014.25
2023-05-01T01:10:59.921Z,1014.25
2023-05-01T01:11:59.924Z,1014.26
2023-05-01T01:12:59.883Z,1014.22
2023-05-01T01:13:59.877Z,1014.31
2023-05-01T01:14:59.850Z,1014.30
2023-05-01T01:15:59.846Z,1014.28
2023-05-01T01:16:59.921Z,1014.24
2023-05-01T01:17:59.869Z,1014.22
2023-05-01T01:18:59.813Z,1014.26
2023-05-01T01:19:59.811Z,1014.26
2023-05-01T01:20:59.795Z,1014.23
2023-05-01T01:21:59.829Z,1014.24
2023-05-01T01:22:59.786Z,1014.22
2023-05-01T01:23:59.781Z,1014.22
2023-05-01T01:24:59.761Z,1014.24
2023-05-01T01:25:59.795Z,1014.19
2023-05-01T01:26:59.710Z,1014.21
2023-05-01T01:27:59.775Z,1014.19
2023-05-01T01:28:59.709Z,1014.22
2023-05-01T01:29:59.700Z,1014.24
2023-05-01T01:30:59.715Z,1014.22
2023-05-01T01:31:59.673Z,1014.25
2023-05-01T01:32:59.752Z,1014.24
2023-05-01T01:33:59.661Z,1014.20
2023-05-01T01:34:59.625Z,1014.18
2023-05-01T01:35:59.629Z,1014.20
2023-05-01T01:36:59.616Z,1014.17
2023-05-01T01:37:59.649Z,1014.23
2023-05-01T01:38:59.609Z,1014.14
2023-05-01T01:39:59.590Z,1014.15
2023-05-01T01:40:59.605Z,1014.16
2023-05-01T01:41:59.582Z,1014.13
2023-05-01T01:42:59.596Z,1014.13
2023-05-01T01:43:59.545Z,1014.15
2023-05-01T01:44:59.522Z,1014.15
2023-05-01T01:45:59.550Z,1014.16
2023-05-01T01:46:59.514Z,1014.10
2023-05-01T01:47:59.590Z,1014.12
2023-05-01T01:48:59.488Z,1014.14
2023-05-01T01:49:59.495Z,1014.18
2023-05-01T01:50:59.466Z,1014.12
2023-05-01T01:51:59.452Z,1014.16
2023-05-01T01:52:59.461Z,1014.14
2023-05-01T01:53:59.445Z,1014.14
2023-05-01T01:54:59.419Z,1014.10
2023-05-01T01:56:00.787Z,1014.11
2023-05-01T01:56:59.383Z,1014.14
2023-05-01T01:57:59.434Z,1014.11
2023-05-01T01:58:59.364Z,1014.16
2023-05-01T01:59:59.348Z,1014.12
2023-05-01T02:00:59.334Z,1014.11
2023-05-01T02:01:59.504Z,1014.09
2023-05-01T02:02:59.429Z,1014.10
2023-05-01T02:03:59.368Z,1014.07
2023-05-01T02:04:59.311Z,1014.03
2023-05-01T02:05:59.344Z,1014.05
2023-05-01T02:06:59.302Z,1014.01
2023-05-01T02:07:59.349Z,1014.01
2023-05-01T02:08:59.269Z,1014.03
2023-05-01T02:09:59.437Z,1013.98
2023-05-01T02:11:01.113Z,1013.98
2023-05-01T02:11:59.230Z,1014.01
2023-05-01T02:12:59.274Z,1013.97
2023-05-01T02:13:59.206Z,1013.97
2023-05-01T02:14:59.185Z,1013.94
2023-05-01T02:15:59.225Z,1013.98
2023-05-01T02:16:59.154Z,1013.97
2023-05-01T02:17:59.308Z,1013.96
2023-05-01T02:18:59.142Z,1013.96
2023-05-01T02:19:59.135Z,1013.96
2023-05-01T02:20:59.130Z,1013.96
2023-05-01T02:21:59.112Z,1013.97
2023-05-01T02:22:59.139Z,1013.93
2023-05-01T02:23:59.083Z,1013.91
2023-05-01T02:24:59.078Z,1013.92
2023-05-01T02:25:59.071Z,1013.85
2023-05-01T02:26:59.062Z,1013.88
2023-05-01T02:27:59.089Z,1013.83
2023-05-01T02:28:59.033Z,1013.83
2023-05-01T02:29:59.217Z,1013.89
2023-05-01T02:30:59.026Z,1013.89
2023-05-01T02:31:59.189Z,1013.87
2023-05-01T02:32:59.061Z,1013.90
2023-05-01T02:33:58.974Z,1013.85
2023-05-01T02:34:58.960Z,1013.86
2023-05-01T02:35:58.962Z,1013.82
2023-05-01T02:36:58.954Z,1013.83
2023-05-01T02:37:58.978Z,1013.79
2023-05-01T02:38:58.908Z,1013.78
2023-05-01T02:39:59.107Z,1013.71
2023-05-01T02:40:58.900Z,1013.75
2023-05-01T02:41:58.920Z,1013.72
2023-05-01T02:42:58.921Z,1013.72
2023-05-01T02:43:58.874Z,1013.67
2023-05-01T02:44:58.860Z,1013.69
2023-05-01T02:45:59.096Z,1013.70
2023-05-01T02:46:58.858Z,1013.64
2023-05-01T02:47:58.893Z,1013.66
2023-05-01T02:48:58.815Z,1013.61
2023-05-01T02:49:59.059Z,1013.58
2023-05-01T02:50:58.796Z,1013.57
2023-05-01T02:51:58.787Z,1013.56
2023-05-01T02:52:58.828Z,1013.56
2023-05-01T02:53:58.787Z,1013.54
2023-05-01T02:54:58.741Z,1013.58
2023-05-01T02:55:58.724Z,1013.59
2023-05-01T02:56:58.726Z,1013.51
2023-05-01T02:57:58.761Z,1013.51
2023-05-01T02:58:58.694Z,1013.50
2023-05-01T02:59:58.701Z,1013.49
2023-05-01T03:00:58.706Z,1013.42
2023-05-01T03:01:58.682Z,1013.46
2023-05-01T03:02:58.759Z,1013.41
2023-05-01T03:03:58.737Z,1013.43
2023-05-01T03:04:58.711Z,1013.40
2023-05-01T03:05:58.681Z,1013.41
2023-05-01T03:06:58.651Z,1013.41
2023-05-01T03:07:58.691Z,1013.41
2023-05-01T03:08:58.595Z,1013.41
2023-05-01T03:09:58.720Z,1013.39
2023-05-01T03:10:58.575Z,1013.39
2023-05-01T03:11:58.555Z,1013.36
2023-05-01T03:12:58.582Z,1013.39
2023-05-01T03:13:58.553Z,1013.36
2023-05-01T03:14:58.534Z,1013.36
2023-05-01T03:15:58.540Z,1013.33
2023-05-01T03:16:58.626Z,1013.38
2023-05-01T03:17:58.559Z,1013.36
2023-05-01T03:18:58.474Z,1013.36
2023-05-01T03:19:58.602Z,1013.41
2023-05-01T03:20:58.472Z,1013.39
2023-05-01T03:21:58.469Z,1013.34
2023-05-01T03:22:58.480Z,1013.33
2023-05-01T03:23:58.435Z,1013.33
2023-05-01T03:24:58.396Z,1013.30
2023-05-01T03:25:58.407Z,1013.26
2023-05-01T03:26:58.388Z,1013.26
2023-05-01T03:27:58.396Z,1013.31
2023-05-01T03:28:58.413Z,1013.32
2023-05-01T03:29:58.457Z,1013.29
2023-05-01T03:30:58.354Z,1013.24
2023-05-01T03:31:58.430Z,1013.25
2023-05-01T03:32:58.347Z,1013.24
2023-05-01T03:33:58.366Z,1013.23
2023-05-01T03:34:58.373Z,1013.19
2023-05-01T03:35:58.293Z,1013.16
2023-05-01T03:36:58.306Z,1013.19
2023-05-01T03:37:58.270Z,1013.20
2023-05-01T03:38:58.298Z,1013.20
2023-05-01T03:39:58.428Z,1013.23
2023-05-01T03:40:58.242Z,1013.17
2023-05-01T03:41:58.232Z,1013.14
2023-05-01T03:42:58.208Z,1013.15
2023-05-01T03:43:58.244Z,1013.11
2023-05-01T03:44:58.197Z,1013.15
2023-05-01T03:45:58.229Z,1013.10
2023-05-01T03:46:58.170Z,1013.14
2023-05-01T03:47:58.206Z,1013.15
2023-05-01T03:48:58.191Z,1013.17
2023-05-01T03:49:58.381Z,1013.11
2023-05-01T03:50:58.145Z,1013.15
2023-05-01T03:51:58.128Z,1013.15
2023-05-01T03:52:58.119Z,1013.12
2023-05-01T03:53:58.133Z,1013.10
2023-05-01T03:54:58.101Z,1013.10
2023-05-01T03:55:58.080Z,1013.07
2023-05-01T03:56:58.078Z,1013.09
2023-05-01T03:57:58.082Z,1013.11
2023-05-01T03:58:58.087Z,1013.08
2023-05-01T03:59:58.271Z,1013.05
2023-05-01T04:00:58.033Z,1013.08
2023-05-01T04:01:58.058Z,1013.06
2023-05-01T04:02:58.257Z,1013.08
2023-05-01T04:03:58.303Z,1013.02
2023-05-01T04:04:57.979Z,1013.03
2023-05-01T04:05:58.058Z,1013.00
2023-05-01T04:06:57.959Z,1013.01
2023-05-01T04:07:57.976Z,1013.00
2023-05-01T04:08:57.951Z,1012.99
2023-05-01T04:09:58.087Z,1013.02
2023-05-01T04:10:57.907Z,1013.00
2023-05-01T04:11:57.893Z,1013.02
2023-05-01T04:12:57.884Z,1013.01
2023-05-01T04:13:57.904Z,1012.99
2023-05-01T04:14:57.898Z,1012.97
2023-05-01T04:15:57.950Z,1012.95
2023-05-01T04:16:57.827Z,1012.94
2023-05-01T04:17:57.874Z,1012.96
2023-05-01T04:18:57.822Z,1012.95
2023-05-01T04:19:58.252Z,1012.95
2023-05-01T04:20:57.805Z,1012.94
2023-05-01T04:21:57.804Z,1012.95
2023-05-01T04:22:57.768Z,1012.99
2023-05-01T04:23:57.760Z,1012.93
2023-05-01T04:24:57.787Z,1012.92
2023-05-01T04:25:57.747Z,1012.91
2023-05-01T04:26:57.762Z,1012.96
2023-05-01T04:27:57.738Z,1012.97
2023-05-01T04:28:57.744Z,1012.98
2023-05-01T04:29:58.266Z,1012.98
2023-05-01T04:30:57.727Z,1012.96
2023-05-01T04:31:57.849Z,1012.94
2023-05-01T04:32:57.720Z,1012.90
2023-05-01T04:33:57.677Z,1012.87
2023-05-01T04:34:58.007Z,1012.93
2023-05-01T04:35:57.640Z,1012.90
2023-05-01T04:36:57.626Z,1012.84
2023-05-01T04:37:57.625Z,1012.85
2023-05-01T04:38:57.597Z,1012.84
2023-05-01T04:39:58.045Z,1012.85
2023-05-01T04:40:57.574Z,1012.80
2023-05-01T04:41:57.572Z,1012.83
2023-05-01T04:42:57.546Z,1012.80
2023-05-01T04:43:57.552Z,1012.81
2023-05-01T04:44:57.558Z,1012.79
2023-05-01T04:45:57.517Z,1012.76
2023-05-01T04:46:57.567Z,1012.78
2023-05-01T04:47:57.583Z,1012.78
2023-05-01T04:48:57.456Z,1012.78
2023-05-01T04:49:57.668Z,1012.74
2023-05-01T04:50:57.467Z,1012.74
2023-05-01T04:51:57.441Z,1012.76
2023-05-01T04:52:57.433Z,1012.77
2023-05-01T04:53:57.470Z,1012.76
2023-05-01T04:54:57.408Z,1012.74
2023-05-01T04:55:57.395Z,1012.72
2023-05-01T04:56:57.381Z,1012.75
2023-05-01T04:57:57.376Z,1012.76
2023-05-01T04:58:57.400Z,1012.67
2023-05-01T04:59:57.852Z,1012.67
2023-05-01T05:00:57.354Z,1012.68
2023-05-01T05:01:57.486Z,1012.70
2023-05-01T05:02:57.430Z,1012.72
2023-05-01T05:03:57.586Z,1012.71
2023-05-01T05:04:57.287Z,1012.71
2023-05-01T05:05:57.341Z,1012.75
2023-05-01T05:06:57.287Z,1012.71
2023-05-01T05:07:57.306Z,1012.74
2023-05-01T05:08:57.261Z,1012.74
2023-05-01T05:09:57.521Z,1012.74
2023-05-01T05:10:57.241Z,1012.68
2023-05-01T05:11:57.213Z,1012.71
2023-05-01T05:12:57.248Z,1012.67
2023-05-01T05:13:57.220Z,1012.71
2023-05-01T05:14:57.246Z,1012.72
2023-05-01T05:15:57.175Z,1012.67
2023-05-01T05:16:57.189Z,1012.68
2023-05-01T05:17:57.260Z,1012.67
2023-05-01T05:18:57.147Z,1012.63
2023-05-01T05:19:57.307Z,1012.61
2023-05-01T05:20:57.127Z,1012.63
2023-05-01T05:21:57.116Z,1012.64
2023-05-01T05:22:57.116Z,1012.62
2023-05-01T05:23:57.093Z,1012.63
2023-05-01T05:24:57.110Z,1012.64
2023-05-01T05:25:57.069Z,1012.60
2023-05-01T05:26:57.065Z,1012.63
2023-05-01T05:27:57.036Z,1012.62
2023-05-01T05:28:57.044Z,1012.62
2023-05-01T05:29:57.201Z,1012.58
2023-05-01T05:30:57.012Z,1012.58
2023-05-01T05:31:57.028Z,1012.56
2023-05-01T05:32:57.045Z,1012.60
2023-05-01T05:33:56.971Z,1012.57
2023-05-01T05:34:57.008Z,1012.55
2023-05-01T05:35:56.953Z,1012.53
2023-05-01T05:36:56.943Z,1012.53
2023-05-01T05:37:56.919Z,1012.51
2023-05-01T05:38:56.932Z,1012.52
2023-05-01T05:39:57.214Z,1012.53
2023-05-01T05:40:56.891Z,1012.48
2023-05-01T05:41:56.901Z,1012.48
2023-05-01T05:42:56.864Z,1012.51
2023-05-01T05:43:56.865Z,1012.47
2023-05-01T05:44:56.883Z,1012.44
2023-05-01T05:45:56.896Z,1012.51
2023-05-01T05:46:56.829Z,1012.46
2023-05-01T05:47:56.937Z,1012.44
2023-05-01T05:48:56.798Z,1012.41
2023-05-01T05:49:56.992Z,1012.40
2023-05-01T05:50:56.787Z,1012.45
2023-05-01T05:51:56.793Z,1012.41
2023-05-01T05:52:56.778Z,1012.38
2023-05-01T05:53:56.743Z,1012.37
2023-05-01T05:54:56.830Z,1012.39
2023-05-01T05:55:56.740Z,1012.42
2023-05-01T05:56:56.739Z,1012.42
2023-05-01T05:57:56.736Z,1012.41
2023-05-01T05:58:56.699Z,1012.41
2023-05-01T05:59:56.958Z,1012.45
2023-05-01T06:00:56.679Z,1012.41
2023-05-01T06:01:56.675Z,1012.45
2023-05-01T06:02:56.770Z,1012.45
2023-05-01T06:03:56.743Z,1012.51
2023-05-01T06:04:56.671Z,1012.47
2023-05-01T06:05:56.765Z,1012.45
2023-05-01T06:06:56.682Z,1012.43
2023-05-01T06:07:56.596Z,1012.43
2023-05-01T06:08:56.606Z,1012.42
2023-05-01T06:09:56.801Z,1012.42
2023-05-01T06:10:56.577Z,1012.37
2023-05-01T06:11:56.542Z,1012.40
2023-05-01T06:13:05.451Z,1012.40
2023-05-01T06:13:57.532Z,1012.40
2023-05-01T06:14:56.552Z,1012.42
2023-05-01T06:15:56.531Z,1012.41
2023-05-01T06:16:56.486Z,1012.42
2023-05-01T06:17:56.565Z,1012.39
2023-05-01T06:18:56.496Z,1012.39
2023-05-01T06:19:56.695Z,1012.41
2023-05-01T06:20:56.433Z,1012.44
2023-05-01T06:21:56.428Z,1012.43
2023-05-01T06:22:56.431Z,1012.44
2023-05-01T06:23:56.442Z,1012.47
2023-05-01T06:24:56.422Z,1012.43
2023-05-01T06:25:56.384Z,1012.43
2023-05-01T06:26:56.382Z,1012.42
2023-05-01T06:27:56.376Z,1012.42
2023-05-01T06:28:56.410Z,1012.38
2023-05-01T06:29:56.654Z,1012.34
2023-05-01T06:30:56.363Z,1012.38
2023-05-01T06:31:56.410Z,1012.31
2023-05-01T06:32:56.368Z,1012.40
2023-05-01T06:33:56.342Z,1012.33
2023-05-01T06:34:56.291Z,1012.34
2023-05-01T06:35:56.274Z,1012.38
2023-05-01T06:36:56.290Z,1012.38
2023-05-01T06:37:56.321Z,1012.35
2023-05-01T06:38:56.232Z,1012.38
2023-05-01T06:39:56.466Z,1012.33
2023-05-01T06:40:56.218Z,1012.38
2023-05-01T06:41:56.196Z,1012.37
2023-05-01T06:42:56.187Z,1012.34
2023-05-01T06:43:56.213Z,1012.30
2023-05-01T06:44:56.197Z,1012.30
2023-05-01T06:45:56.167Z,1012.31
2023-05-01T06:46:56.171Z,1012.32
2023-05-01T06:47:56.182Z,1012.24
2023-05-01T06:48:56.107Z,1012.27
2023-05-01T06:49:56.440Z,1012.31
2023-05-01T06:50:56.116Z,1012.28
2023-05-01T06:51:56.105Z,1012.22
2023-05-01T06:52:56.093Z,1012.22
2023-05-01T06:53:56.070Z,1012.21
2023-05-01T06:54:56.097Z,1012.20
2023-05-01T06:55:56.058Z,1012.20
2023-05-01T06:56:56.054Z,1012.15
2023-05-01T06:57:56.031Z,1012.18
2023-05-01T06:58:56.026Z,1012.19
2023-05-01T06:59:56.288Z,1012.20
2023-05-01T07:00:56.047Z,1012.18
2023-05-01T07:01:56.001Z,1012.16
2023-05-01T07:02:56.073Z,1012.17
2023-05-01T07:03:55.961Z,1012.13
2023-05-01T07:04:55.977Z,1012.15
2023-05-01T07:05:55.951Z,1012.04
2023-05-01T07:06:55.939Z,1012.09
2023-05-01T07:08:01.297Z,1012.08
2023-05-01T07:08:56.925Z,1012.05
2023-05-01T07:09:56.058Z,1012.06
2023-05-01T07:10:55.899Z,1012.08
2023-05-01T07:11:55.881Z,1012.04
2023-05-01T07:12:55.879Z,1012.03
2023-05-01T07:13:55.846Z,1012.02
2023-05-01T07:14:55.889Z,1011.99
2023-05-01T07:15:55.848Z,1011.97
2023-05-01T07:16:55.910Z,1011.98
2023-05-01T07:17:55.807Z,1011.95
2023-05-01T07:18:55.787Z,1011.91
2023-05-01T07:19:56.097Z,1011.94
2023-05-01T07:20:55.763Z,1011.94
2023-05-01T07:21:55.773Z,1011.83
2023-05-01T07:22:55.783Z,1011.89
2023-05-01T07:23:55.720Z,1011.88
2023-05-01T07:24:55.779Z,1011.91
2023-05-01T07:25:55.696Z,1011.91
2023-05-01T07:26:55.720Z,1011.95
2023-05-01T07:27:55.712Z,1011.90
2023-05-01T07:28:55.691Z,1011.90
2023-05-01T07:29:55.908Z,1011.91
2023-05-01T07:30:55.669Z,1011.88
2023-05-01T07:31:55.733Z,1011.86
2023-05-01T07:32:55.691Z,1011.89
2023-05-01T07:33:55.626Z,1011.91
2023-05-01T07:34:55.662Z,1011.91
2023-05-01T07:35:55.602Z,1011.89
2023-05-01T07:36:55.594Z,1011.91
2023-05-01T07:37:55.596Z,1011.91
2023-05-01T07:38:55.586Z,1011.89
2023-05-01T07:39:55.958Z,1011.92
2023-05-01T07:40:55.571Z,1011.83
2023-05-01T07:41:55.540Z,1011.81
2023-05-01T07:42:55.555Z,1011.78
2023-05-01T07:43:55.497Z,1011.74
2023-05-01T07:44:55.544Z,1011.80
2023-05-01T07:45:55.508Z,1011.79
2023-05-01T07:46:55.471Z,1011.78
2023-05-01T07:47:55.532Z,1011.76
2023-05-01T07:48:55.458Z,1011.74
2023-05-01T07:49:55.872Z,1011.74
2023-05-01T07:50:55.443Z,1011.67
2023-05-01T07:51:55.422Z,1011.66
2023-05-01T07:52:55.418Z,1011.67
2023-05-01T07:53:55.410Z,1011.71
2023-05-01T07:54:55.422Z,1011.65
2023-05-01T07:55:55.367Z,1011.67
2023-05-01T07:56:55.370Z,1011.67
2023-05-01T07:57:55.360Z,1011.65
2023-05-01T07:58:55.353Z,1011.64
2023-05-01T07:59:55.646Z,1011.64
2023-05-01T08:00:55.294Z,1011.71
2023-05-01T08:01:55.352Z,1011.64
2023-05-01T08:02:55.555Z,1011.61
2023-05-01T08:03:55.409Z,1011.56
2023-05-01T08:04:55.503Z,1011.57
2023-05-01T08:05:55.290Z,1011.56
2023-05-01T08:06:55.375Z,1011.53
2023-05-01T08:07:55.220Z,1011.52
2023-05-01T08:08:55.251Z,1011.51
2023-05-01T08:09:57.868Z,1011.47
2023-05-01T08:10:55.241Z,1011.48
2023-05-01T08:11:55.198Z,1011.48
2023-05-01T08:12:55.216Z,1011.48
2023-05-01T08:13:55.146Z,1011.48
2023-05-01T08:14:55.215Z,1011.45
2023-05-01T08:15:55.353Z,1011.45
2023-05-01T08:16:55.144Z,1011.49
2023-05-01T08:17:55.142Z,1011.47
2023-05-01T08:18:55.161Z,1011.42
2023-05-01T08:19:55.397Z,1011.44
2023-05-01T08:20:55.122Z,1011.51
2023-05-01T08:21:55.084Z,1011.49
2023-05-01T08:22:55.070Z,1011.50
2023-05-01T08:23:55.054Z,1011.49
2023-05-01T08:24:55.082Z,1011.50
2023-05-01T08:25:55.047Z,1011.51
2023-05-01T08:26:55.025Z,1011.53
2023-05-01T08:27:55.001Z,1011.53
2023-05-01T08:28:55.007Z,1011.50
2023-05-01T08:29:55.275Z,1011.49
2023-05-01T08:30:54.985Z,1011.47
2023-05-01T08:31:55.158Z,1011.47
2023-05-01T08:32:55.039Z,1011.42
2023-05-01T08:33:54.944Z,1011.44
2023-05-01T08:34:55.008Z,1011.50
2023-05-01T08:35:54.926Z,1011.49
2023-05-01T08:36:54.936Z,1011.51
2023-05-01T08:37:54.915Z,1011.47
2023-05-01T08:38:54.885Z,1011.49
2023-05-01T08:39:55.140Z,1011.45
2023-05-01T08:40:54.855Z,1011.48
2023-05-01T08:41:54.855Z,1011.47
2023-05-01T08:42:54.844Z,1011.44
2023-05-01T08:43:54.876Z,1011.46
2023-05-01T08:44:54.843Z,1011.41
2023-05-01T08:45:54.914Z,1011.43
2023-05-01T08:46:54.864Z,1011.40
2023-05-01T08:47:54.895Z,1011.41
2023-05-01T08:48:54.787Z,1011.40
2023-05-01T08:49:55.039Z,1011.43
2023-05-01T08:50:54.830Z,1011.43
2023-05-01T08:51:54.743Z,1011.38
2023-05-01T08:52:54.763Z,1011.40
2023-05-01T08:53:54.736Z,1011.36
2023-05-01T08:54:54.726Z,1011.32
2023-05-01T08:55:54.756Z,1011.35
2023-05-01T08:56:54.693Z,1011.33
2023-05-01T08:57:54.693Z,1011.37
2023-05-01T08:58:54.694Z,1011.40
2023-05-01T08:59:54.811Z,1011.41
2023-05-01T09:00:54.698Z,1011.37
2023-05-01T09:01:54.711Z,1011.35
2023-05-01T09:02:54.646Z,1011.33
2023-05-01T09:03:54.684Z,1011.30
2023-05-01T09:04:54.617Z,1011.31
2023-05-01T09:05:54.630Z,1011.26
2023-05-01T09:06:54.619Z,1011.27
2023-05-01T09:07:54.582Z,1011.23
2023-05-01T09:08:54.550Z,1011.22
2023-05-01T09:09:54.794Z,1011.26
2023-05-01T09:10:54.580Z,1011.26
2023-05-01T09:11:54.530Z,1011.18
2023-05-01T09:12:54.531Z,1011.17
2023-05-01T09:13:54.524Z,1011.18
2023-05-01T09:14:54.493Z,1011.13
2023-05-01T09:15:54.585Z,1011.13
2023-05-01T09:16:54.615Z,1011.12
2023-05-01T09:17:54.489Z,1011.10
2023-05-01T09:18:54.463Z,1011.09
2023-05-01T09:19:54.589Z,1011.10
2023-05-01T09:20:54.471Z,1011.07
2023-05-01T09:21:54.434Z,1011.13
2023-05-01T09:22:54.416Z,1011.13
2023-05-01T09:23:54.412Z,1011.04
2023-05-01T09:24:54.386Z,1011.05
2023-05-01T09:25:54.425Z,1010.99
2023-05-01T09:26:54.362Z,1011.03
2023-05-01T09:27:54.370Z,1011.00
2023-05-01T09:28:54.378Z,1010.97
2023-05-01T09:29:54.464Z,1011.00
2023-05-01T09:30:54.372Z,1010.95
2023-05-01T09:31:54.423Z,1010.99
2023-05-01T09:32:54.347Z,1011.02
2023-05-01T09:33:54.297Z,1010.93
2023-05-01T09:34:54.286Z,1010.90
2023-05-01T09:35:54.371Z,1010.95
2023-05-01T09:36:54.273Z,1010.92
2023-05-01T09:37:54.252Z,1010.87
2023-05-01T09:38:54.233Z,1010.93
2023-05-01T09:39:54.494Z,1010.90
2023-05-01T09:40:54.246Z,1010.88
2023-05-01T09:41:54.222Z,1010.87
2023-05-01T09:42:54.224Z,1010.87
2023-05-01T09:43:54.202Z,1010.81
2023-05-01T09:44:54.205Z,1010.83
2023-05-01T09:45:54.330Z,1010.81
2023-05-01T09:46:54.161Z,1010.72
2023-05-01T09:47:54.205Z,1010.71
2023-05-01T09:48:54.150Z,1010.70
2023-05-01T09:49:54.380Z,1010.74
2023-05-01T09:50:54.312Z,1010.71
2023-05-01T09:51:54.117Z,1010.71
2023-05-01T09:52:54.080Z,1010.73
2023-05-01T09:53:54.088Z,1010.70
2023-05-01T09:54:54.063Z,1010.66
2023-05-01T09:55:54.085Z,1010.61
2023-05-01T09:56:54.081Z,1010.59
2023-05-01T09:57:54.068Z,1010.58
2023-05-01T09:58:54.033Z,1010.54
2023-05-01T09:59:54.274Z,1010.57
2023-05-01T10:00:54.020Z,1010.55
2023-05-01T10:01:54.112Z,1010.53
2023-05-01T10:02:54.132Z,1010.52
2023-05-01T10:03:54.128Z,1010.48
2023-05-01T10:04:53.950Z,1010.49
2023-05-01T10:05:53.955Z,1010.49
2023-05-01T10:06:54.028Z,1010.42
2023-05-01T10:07:53.933Z,1010.44
2023-05-01T10:08:53.921Z,1010.41
2023-05-01T10:09:53.986Z,1010.47
2023-05-01T10:10:53.927Z,1010.42
2023-05-01T10:11:53.967Z,1010.39
2023-05-01T10:12:53.917Z,1010.36
2023-05-01T10:13:53.863Z,1010.40
2023-05-01T10:14:53.884Z,1010.39
2023-05-01T10:15:53.893Z,1010.44
2023-05-01T10:16:53.940Z,1010.37
2023-05-01T10:17:54.412Z,1010.40
2023-05-01T10:18:53.820Z,1010.40
2023-05-01T10:19:53.809Z,1010.38
2023-05-01T10:20:53.792Z,1010.30
2023-05-01T10:21:53.812Z,1010.36
2023-05-01T10:22:53.764Z,1010.36
2023-05-01T10:23:53.772Z,1010.38
2023-05-01T10:24:53.744Z,1010.35
2023-05-01T10:25:53.790Z,1010.34
2023-05-01T10:26:53.769Z,1010.29
2023-05-01T10:27:53.715Z,1010.37
2023-05-01T10:28:53.717Z,1010.29
2023-05-01T10:29:53.765Z,1010.27
2023-05-01T10:30:53.690Z,1010.24
2023-05-01T10:31:53.797Z,1010.18
2023-05-01T10:32:53.674Z,1010.24
2023-05-01T10:33:53.644Z,1010.21
2023-05-01T10:34:53.765Z,1010.22
2023-05-01T10:35:53.655Z,1010.20
2023-05-01T10:36:53.689Z,1010.18
2023-05-01T10:37:53.672Z,1010.13
2023-05-01T10:38:53.613Z,1010.10
2023-05-01T10:39:53.591Z,1010.04
2023-05-01T10:40:53.583Z,1010.02
2023-05-01T10:41:53.596Z,1010.10
2023-05-01T10:42:53.598Z,1010.07
2023-05-01T10:43:53.568Z,1010.06
2023-05-01T10:44:53.583Z,1010.01
2023-05-01T10:45:53.567Z,1010.01
2023-05-01T10:46:53.609Z,1009.95
2023-05-01T10:47:53.579Z,1009.96
2023-05-01T10:48:53.505Z,1009.94
2023-05-01T10:49:53.510Z,1009.94
2023-05-01T10:50:53.480Z,1009.93
2023-05-01T10:51:53.515Z,1009.98
2023-05-01T10:52:53.450Z,1009.90
2023-05-01T10:53:53.424Z,1009.83
2023-05-01T10:54:53.472Z,1009.87
2023-05-01T10:55:53.427Z,1009.86
2023-05-01T10:56:53.443Z,1009.84
2023-05-01T10:57:53.408Z,1009.81
2023-05-01T10:58:53.414Z,1009.82
2023-05-01T10:59:53.373Z,1009.79
2023-05-01T11:00:53.373Z,1009.72
2023-05-01T11:01:53.540Z,1009.72
2023-05-01T11:02:53.340Z,1009.67
2023-05-01T11:03:53.333Z,1009.69
2023-05-01T11:04:53.344Z,1009.60
2023-05-01T11:05:53.401Z,1009.67
2023-05-01T11:06:53.451Z,1009.66
2023-05-01T11:07:53.290Z,1009.56
2023-05-01T11:08:53.276Z,1009.54
2023-05-01T11:09:53.276Z,1009.54
2023-05-01T11:10:53.272Z,1009.55
2023-05-01T11:11:53.271Z,1009.56
2023-05-01T11:12:53.235Z,1009.57
2023-05-01T11:13:53.236Z,1009.53
2023-05-01T11:14:53.254Z,1009.44
2023-05-01T11:15:53.242Z,1009.49
2023-05-01T11:16:53.292Z,1009.48
2023-05-01T11:17:53.245Z,1009.51
2023-05-01T11:18:53.176Z,1009.50
2023-05-01T11:19:53.172Z,1009.49
2023-05-01T11:20:53.171Z,1009.45
2023-05-01T11:21:53.202Z,1009.43
2023-05-01T11:22:53.127Z,1009.48
2023-05-01T11:23:53.137Z,1009.45
2023-05-01T11:24:53.109Z,1009.35
2023-05-01T11:25:53.101Z,1009.38
2023-05-01T11:26:53.126Z,1009.39
2023-05-01T11:27:53.129Z,1009.35
2023-05-01T11:28:53.061Z,1009.29
2023-05-01T11:29:53.058Z,1009.20
2023-05-01T11:30:53.025Z,1009.26
2023-05-01T11:31:53.116Z,1009.16
2023-05-01T11:32:53.085Z,1009.22
2023-05-01T11:33:53.027Z,1009.23
2023-05-01T11:34:53.029Z,1009.18
2023-05-01T11:35:52.988Z,1009.23
2023-05-01T11:36:53.008Z,1009.11
2023-05-01T11:37:52.971Z,1009.10
2023-05-01T11:38:52.949Z,1009.11
2023-05-01T11:39:52.970Z,1009.05
2023-05-01T11:40:52.939Z,1009.09
2023-05-01T11:41:52.986Z,1009.07
2023-05-01T11:42:52.957Z,1009.01
2023-05-01T11:43:52.930Z,1009.07
2023-05-01T11:44:52.883Z,1009.12
2023-05-01T11:45:52.987Z,1009.04
2023-05-01T11:46:52.875Z,1008.97
2023-05-01T11:47:52.954Z,1009.03
2023-05-01T11:48:52.878Z,1008.99
2023-05-01T11:49:52.857Z,1008.92
2023-05-01T11:50:52.829Z,1008.94
2023-05-01T11:51:52.830Z,1008.88
2023-05-01T11:52:52.861Z,1008.87
2023-05-01T11:53:52.838Z,1008.86
2023-05-01T11:54:52.793Z,1008.87
2023-05-01T11:55:52.797Z,1008.83
2023-05-01T11:56:52.759Z,1008.79
2023-05-01T11:57:52.792Z,1008.88
2023-05-01T11:58:52.731Z,1008.80
2023-05-01T11:59:52.729Z,1008.75
2023-05-01T12:00:52.719Z,1008.74
2023-05-01T12:01:52.812Z,1008.74
2023-05-01T12:02:52.831Z,1008.72
2023-05-01T12:03:52.804Z,1008.80
2023-05-01T12:04:52.926Z,1008.76